createdAt,value
2022-09-05T00:00:36.230Z,101310.35
2022-09-05T00:03:44.525Z,101309.16
2022-09-05T00:06:36.843Z,101307.39
2022-09-05T00:09:38.613Z,101303.05
2022-09-05T00:12:26.230Z,101299.63
2022-09-05T00:15:43.965Z,101305.45
2022-09-05T00:24:18.659Z,101301.56
2022-09-05T00:24:26.251Z,101302.38
2022-09-05T00:26:04.496Z,101304.98
2022-09-05T00:30:13.999Z,101307.34
2022-09-05T00:32:47.186Z,101311.65
2022-09-05T00:36:33.395Z,101310.12
2022-09-05T00:39:37.697Z,101305.44
2022-09-05T00:42:24.373Z,101304.72
2022-09-05T00:45:19.538Z,101304.18
2022-09-05T00:48:21.767Z,101302.30
2022-09-05T00:51:40.337Z,101302.13
2022-09-05T00:54:41.753Z,101298.23
2022-09-05T00:58:09.350Z,101300.11
2022-09-05T01:00:59.572Z,101298.16
2022-09-05T01:04:00.410Z,101302.50
2022-09-05T01:07:56.698Z,101303.94
2022-09-05T01:11:00.150Z,101308.34
2022-09-05T01:14:32.385Z,101301.30
2022-09-05T01:17:50.808Z,101305.16
2022-09-05T01:20:48.580Z,101305.81
2022-09-05T01:23:43.251Z,101305.56
2022-09-05T01:27:15.571Z,101306.58
2022-09-05T01:30:31.738Z,101311.81
2022-09-05T01:34:01.903Z,101309.10
2022-09-05T01:37:33.191Z,101312.30
2022-09-05T01:40:44.671Z,101309.70
2022-09-05T01:44:10.596Z,101314.18
2022-09-05T01:47:29.363Z,101316.33
2022-09-05T01:50:48.929Z,101318.83
2022-09-05T01:53:36.653Z,101312.00
2022-09-05T01:56:49.944Z,101308.61
2022-09-05T01:59:55.384Z,101307.75
2022-09-05T02:03:00.212Z,101306.36
2022-09-05T02:06:24.510Z,101301.50
2022-09-05T02:09:28.884Z,101304.69
2022-09-05T02:13:03.040Z,101302.51
2022-09-05T02:16:15.714Z,101303.85
2022-09-05T02:19:10.536Z,101305.55
2022-09-05T02:22:34.000Z,101306.41
2022-09-05T02:26:00.612Z,101307.29
2022-09-05T02:29:00.778Z,101306.74
2022-09-05T02:31:57.000Z,101306.27
2022-09-05T02:35:04.270Z,101306.35
2022-09-05T02:40:29.885Z,101302.53
2022-09-05T02:45:02.341Z,101305.92
2022-09-05T02:45:29.194Z,101305.83
2022-09-05T02:48:24.607Z,101303.81
2022-09-05T02:57:26.916Z,101304.18
2022-09-05T02:57:33.359Z,101302.67
2022-09-05T02:58:06.291Z,101301.55
2022-09-05T03:01:31.207Z,101304.45
2022-09-05T03:04:50.297Z,101304.20
2022-09-05T03:08:26.980Z,101306.36
2022-09-05T03:11:55.416Z,101306.15
2022-09-05T03:15:18.496Z,101306.18
2022-09-05T03:18:20.289Z,101310.52
2022-09-05T03:21:53.841Z,101315.20
2022-09-05T03:24:56.183Z,101317.09
2022-09-05T03:28:11.232Z,101315.73
2022-09-05T03:31:31.027Z,101316.15
2022-09-05T03:34:35.122Z,101312.33
2022-09-05T03:37:51.339Z,101311.59
2022-09-05T03:40:52.423Z,101314.23
2022-09-05T03:44:13.336Z,101314.25
2022-09-05T03:47:47.229Z,101316.71
2022-09-05T03:57:10.482Z,101321.23
2022-09-05T03:57:11.443Z,101316.80
2022-09-05T03:58:56.381Z,101322.27
2022-09-05T04:03:14.483Z,101320.63
2022-09-05T04:08:14.240Z,101328.52
2022-09-05T04:08:53.808Z,101325.20
2022-09-05T04:11:58.256Z,101332.70
2022-09-05T04:14:58.697Z,101335.33
2022-09-05T04:17:52.369Z,101336.70
2022-09-05T04:20:51.605Z,101345.95
2022-09-05T04:23:58.680Z,101345.55
2022-09-05T04:27:02.884Z,101352.52
2022-09-05T04:30:40.579Z,101354.91
2022-09-05T04:34:02.743Z,101356.59
2022-09-05T04:37:06.540Z,101363.02
2022-09-05T04:39:52.627Z,101362.99
2022-09-05T04:42:40.433Z,101367.02
2022-09-05T04:45:30.947Z,101372.60
2022-09-05T04:48:24.900Z,101370.67
2022-09-05T04:51:44.433Z,101367.63
2022-09-05T04:54:42.827Z,101369.18
2022-09-05T04:57:56.322Z,101370.16
2022-09-05T05:06:00.245Z,101374.77
2022-09-05T05:06:18.707Z,101378.73
2022-09-05T05:07:53.862Z,101377.81
2022-09-05T05:16:26.587Z,101378.85
2022-09-05T05:17:58.202Z,101383.42
2022-09-05T05:18:09.262Z,101384.77
2022-09-05T05:21:16.562Z,101390.95
2022-09-05T05:24:21.670Z,101394.50
2022-09-05T05:27:39.502Z,101397.98
2022-09-05T05:30:33.224Z,101399.84
2022-09-05T05:33:27.189Z,101402.11
2022-09-05T05:36:25.471Z,101403.43
2022-09-05T05:39:21.436Z,101407.42
2022-09-05T05:42:20.910Z,101408.20
2022-09-05T05:45:33.248Z,101405.19
2022-09-05T05:48:19.282Z,101408.03
2022-09-05T05:52:00.990Z,101410.80
2022-09-05T05:55:23.703Z,101409.73
2022-09-05T05:58:53.827Z,101412.91
2022-09-05T06:02:08.868Z,101416.70
2022-09-05T06:05:50.867Z,101415.05
2022-09-05T06:14:24.836Z,101419.94
2022-09-05T06:14:49.727Z,101426.25
2022-09-05T06:16:41.545Z,101423.00
2022-09-05T06:21:19.761Z,101427.88
2022-09-05T06:23:10.612Z,101431.23
2022-09-05T06:26:36.103Z,101432.02
2022-09-05T06:29:38.378Z,101434.62
2022-09-05T06:33:16.802Z,101440.77
2022-09-05T06:36:45.216Z,101441.68
2022-09-05T06:39:57.501Z,101442.84
2022-09-05T06:43:10.586Z,101444.61
2022-09-05T06:46:54.621Z,101449.15
2022-09-05T06:50:24.224Z,101457.81
2022-09-05T06:53:44.749Z,101455.50
2022-09-05T06:56:55.391Z,101452.13
2022-09-05T07:00:12.521Z,101446.83
2022-09-05T07:03:38.062Z,101446.88
2022-09-05T07:07:01.521Z,101447.09
2022-09-05T07:10:39.622Z,101452.17
2022-09-05T07:13:44.549Z,101455.19
2022-09-05T07:16:51.091Z,101453.45
2022-09-05T07:19:50.343Z,101457.85
2022-09-05T07:23:20.324Z,101456.95
2022-09-05T07:26:35.041Z,101456.28
2022-09-05T07:29:33.378Z,101458.02
2022-09-05T07:32:24.243Z,101457.81
2022-09-05T07:35:43.673Z,101459.88
2022-09-05T07:38:52.294Z,101459.25
2022-09-05T07:41:44.297Z,101461.79
2022-09-05T07:44:36.028Z,101457.89
2022-09-05T07:47:22.835Z,101456.77
2022-09-05T07:52:15.635Z,101455.29
2022-09-05T07:57:01.956Z,101454.98
2022-09-05T07:57:22.481Z,101451.67
2022-09-05T08:00:02.376Z,101447.61
2022-09-05T08:03:13.005Z,101448.92
2022-09-05T08:06:05.500Z,101447.16
2022-09-05T08:10:05.280Z,101448.07
2022-09-05T08:13:24.693Z,101446.58
2022-09-05T08:16:19.901Z,101442.71
2022-09-05T08:20:08.660Z,101439.88
2022-09-05T08:23:07.012Z,101439.80
2022-09-05T08:26:38.167Z,101433.92
2022-09-05T08:29:38.484Z,101427.55
2022-09-05T08:32:48.445Z,101432.19
2022-09-05T08:36:09.663Z,101426.92
2022-09-05T08:39:00.070Z,101418.21
2022-09-05T08:42:29.923Z,101417.30
2022-09-05T08:46:43.898Z,101417.61
2022-09-05T08:49:40.374Z,101416.02
2022-09-05T08:52:52.712Z,101413.80
2022-09-05T08:55:59.377Z,101416.20
2022-09-05T08:59:32.431Z,101411.30
2022-09-05T09:02:47.547Z,101411.77
2022-09-05T09:06:13.759Z,101415.43
2022-09-05T09:09:30.070Z,101417.30
2022-09-05T09:13:03.709Z,101409.63
2022-09-05T09:16:05.341Z,101407.66
2022-09-05T09:18:51.124Z,101411.42
2022-09-05T09:21:58.651Z,101410.52
2022-09-05T09:25:14.756Z,101406.02
2022-09-05T09:28:48.825Z,101403.54
2022-09-05T09:31:59.715Z,101405.59
2022-09-05T09:34:58.814Z,101400.20
2022-09-05T09:37:59.773Z,101395.27
2022-09-05T09:41:16.361Z,101391.34
2022-09-05T09:44:46.596Z,101394.84
2022-09-05T09:47:41.349Z,101391.81
2022-09-05T09:51:06.297Z,101391.46
2022-09-05T09:54:35.096Z,101389.44
2022-09-05T09:57:48.870Z,101393.05
2022-09-05T10:01:04.118Z,101386.86
2022-09-05T10:10:40.020Z,101386.85
2022-09-05T10:10:51.895Z,101384.90
2022-09-05T10:11:55.618Z,101381.61
2022-09-05T10:15:41.518Z,101374.27
2022-09-05T10:19:12.026Z,101377.19
2022-09-05T10:22:52.024Z,101373.73
2022-09-05T10:26:35.398Z,101368.65
2022-09-05T10:30:03.408Z,101363.18
2022-09-05T10:35:17.979Z,101366.79
2022-09-05T10:36:23.139Z,101367.26
2022-09-05T10:39:24.695Z,101361.64
2022-09-05T10:42:18.095Z,101359.38
2022-09-05T10:45:15.488Z,101359.82
2022-09-05T10:48:14.282Z,101359.34
2022-09-05T10:51:27.398Z,101362.91
2022-09-05T10:55:13.834Z,101361.47
2022-09-05T10:58:31.862Z,101357.25
2022-09-05T11:02:22.383Z,101358.94
2022-09-05T11:05:23.578Z,101351.47
2022-09-05T11:08:45.141Z,101346.30
2022-09-05T11:11:46.151Z,101347.39
2022-09-05T11:14:53.483Z,101342.39
2022-09-05T11:17:52.476Z,101337.05
2022-09-05T11:20:48.810Z,101333.77
2022-09-05T11:23:37.481Z,101335.85
2022-09-05T11:26:34.424Z,101341.96
2022-09-05T11:29:43.549Z,101333.05
2022-09-05T11:39:14.806Z,101325.20
2022-09-05T11:40:06.455Z,101323.09
2022-09-05T11:40:10.956Z,101321.61
2022-09-05T11:42:46.057Z,101316.91
2022-09-05T11:45:43.868Z,101314.85
2022-09-05T11:49:06.552Z,101317.94
2022-09-05T11:52:22.208Z,101312.48
2022-09-05T11:55:32.983Z,101310.48
2022-09-05T11:59:05.568Z,101303.57
2022-09-05T12:02:23.167Z,101302.00
2022-09-05T12:05:58.892Z,101297.63
2022-09-05T12:09:20.233Z,101301.70
2022-09-05T12:12:38.515Z,101300.34
2022-09-05T12:15:34.398Z,101303.06
2022-09-05T12:18:45.697Z,101304.42
2022-09-05T12:22:23.952Z,101308.56
2022-09-05T12:27:36.525Z,101302.61
2022-09-05T12:29:33.736Z,101294.92
2022-09-05T12:34:44.006Z,101293.27
2022-09-05T12:36:09.835Z,101289.10
2022-09-05T12:40:43.516Z,101285.72
2022-09-05T12:42:19.324Z,101279.11
2022-09-05T12:45:32.935Z,101281.56
2022-09-05T12:48:45.255Z,101275.52
2022-09-05T12:51:46.417Z,101270.03
2022-09-05T12:54:56.860Z,101273.93
2022-09-05T13:01:31.927Z,101274.21
2022-09-05T13:03:02.133Z,101271.63
2022-09-05T13:04:18.240Z,101273.09
2022-09-05T13:07:21.315Z,101268.14
2022-09-05T13:14:37.064Z,101258.20
2022-09-05T13:14:56.948Z,101263.06
2022-09-05T13:17:05.716Z,101264.02
2022-09-05T13:19:54.032Z,101262.73
2022-09-05T13:22:48.851Z,101254.92
2022-09-05T13:25:37.388Z,101252.23
2022-09-05T13:28:26.780Z,101252.41
2022-09-05T13:37:53.870Z,101248.38
2022-09-05T13:37:59.036Z,101244.55
2022-09-05T13:38:07.595Z,101247.30
2022-09-05T13:40:58.256Z,101246.80
2022-09-05T13:43:44.281Z,101237.52
2022-09-05T13:46:59.466Z,101238.93
2022-09-05T13:50:14.165Z,101243.79
2022-09-05T13:53:05.143Z,101247.39
2022-09-05T13:56:03.348Z,101247.96
2022-09-05T13:58:57.647Z,101253.29
2022-09-05T14:06:45.728Z,101251.63
2022-09-05T14:10:06.660Z,101247.20
2022-09-05T14:13:11.752Z,101244.25
2022-09-05T14:16:02.951Z,101246.09
2022-09-05T14:19:09.016Z,101242.30
2022-09-05T14:21:54.941Z,101242.38
2022-09-05T14:24:52.944Z,101240.63
2022-09-05T14:27:48.031Z,101244.80
2022-09-05T14:34:36.925Z,101243.19
2022-09-05T14:37:43.228Z,101241.04
2022-09-05T14:38:01.085Z,101237.64
2022-09-05T14:40:43.783Z,101235.36
2022-09-05T14:43:37.554Z,101230.60
2022-09-05T14:46:42.770Z,101231.68
2022-09-05T14:49:22.683Z,101231.54
2022-09-05T14:51:55.435Z,101236.64
2022-09-05T15:02:44.703Z,101232.34
2022-09-05T15:02:49.283Z,101235.50
2022-09-05T15:03:14.960Z,101230.34
2022-09-05T15:05:50.437Z,101233.01
2022-09-05T15:11:20.319Z,101232.19
2022-09-05T15:12:23.313Z,101229.86
2022-09-05T15:14:13.318Z,101229.63
2022-09-05T15:16:59.070Z,101228.26
2022-09-05T15:20:05.899Z,101227.51
2022-09-05T15:22:43.581Z,101226.36
2022-09-05T15:25:23.433Z,101225.95
2022-09-05T15:27:52.338Z,101229.08
2022-09-05T15:30:22.571Z,101226.05
2022-09-05T15:33:25.236Z,101227.27
2022-09-05T15:35:55.470Z,101222.09
2022-09-05T15:38:56.262Z,101225.95
2022-09-05T15:41:29.824Z,101224.37
2022-09-05T15:44:13.411Z,101225.61
2022-09-05T15:47:01.657Z,101226.31
2022-09-05T15:49:38.172Z,101224.52
2022-09-05T15:52:18.494Z,101220.02
2022-09-05T15:54:49.814Z,101222.23
2022-09-05T15:57:27.261Z,101223.94
2022-09-05T16:00:01.126Z,101226.57
2022-09-05T16:02:38.348Z,101228.79
2022-09-05T16:10:27.397Z,101225.38
2022-09-05T16:10:42.606Z,101228.13
2022-09-05T16:12:09.169Z,101229.42
2022-09-05T16:14:39.538Z,101232.21
2022-09-05T16:23:19.843Z,101231.95
2022-09-05T16:23:28.532Z,101232.68
2022-09-05T16:23:41.568Z,101232.33
2022-09-05T16:26:26.244Z,101232.08
2022-09-05T16:29:06.267Z,101228.89
2022-09-05T16:31:47.859Z,101229.23
2022-09-05T16:34:34.573Z,101228.38
2022-09-05T16:37:30.524Z,101228.23
2022-09-05T16:40:08.770Z,101227.19
2022-09-05T16:43:00.180Z,101231.07
2022-09-05T16:45:55.846Z,101230.19
2022-09-05T16:48:57.662Z,101234.59
2022-09-05T16:51:38.411Z,101237.88
2022-09-05T16:54:34.464Z,101238.33
2022-09-05T16:57:17.605Z,101239.06
2022-09-05T16:59:47.959Z,101246.94
2022-09-05T17:03:08.252Z,101247.63
2022-09-05T17:05:48.813Z,101250.41
2022-09-05T17:08:29.854Z,101249.95
2022-09-05T17:11:13.783Z,101257.16
2022-09-05T17:14:07.469Z,101257.88
2022-09-05T17:16:47.474Z,101263.86
2022-09-05T17:19:30.985Z,101270.10
2022-09-05T17:27:08.329Z,101271.20
2022-09-05T17:29:25.247Z,101277.02
2022-09-05T17:29:30.090Z,101277.47
2022-09-05T17:33:51.214Z,101280.40
2022-09-05T17:36:44.148Z,101281.80
2022-09-05T17:40:18.053Z,101286.20
2022-09-05T17:43:02.359Z,101293.51
2022-09-05T17:45:41.171Z,101297.95
2022-09-05T17:48:13.113Z,101296.80
2022-09-05T17:50:54.216Z,101300.20
2022-09-05T17:53:25.167Z,101298.52
2022-09-05T17:55:56.309Z,101297.04
2022-09-05T17:58:28.324Z,101303.11
2022-09-05T18:01:28.356Z,101304.86
2022-09-05T18:04:15.729Z,101306.33
2022-09-05T18:06:59.220Z,101304.86
2022-09-05T18:09:49.097Z,101305.73
2022-09-05T18:13:12.957Z,101302.94
2022-09-05T18:15:27.933Z,101302.77
2022-09-05T18:18:01.852Z,101303.71
2022-09-05T18:20:43.807Z,101306.47
2022-09-05T18:23:37.372Z,101305.48
2022-09-05T18:26:27.353Z,101303.52
2022-09-05T18:28:59.250Z,101302.65
2022-09-05T18:31:42.550Z,101304.80
2022-09-05T18:34:14.928Z,101310.98
2022-09-05T18:36:49.491Z,101311.60
2022-09-05T18:39:24.236Z,101307.83
2022-09-05T18:42:26.451Z,101309.17
2022-09-05T18:45:15.113Z,101309.38
2022-09-05T18:47:59.032Z,101306.45
2022-09-05T18:50:37.573Z,101302.16
2022-09-05T18:53:13.384Z,101305.56
2022-09-05T18:56:27.342Z,101301.52
2022-09-05T18:59:12.543Z,101301.33
2022-09-05T19:02:28.763Z,101302.22
2022-09-05T19:05:16.069Z,101302.77
2022-09-05T19:07:49.104Z,101306.25
2022-09-05T19:10:36.282Z,101312.25
2022-09-05T19:13:24.094Z,101313.31
2022-09-05T19:16:43.078Z,101316.11
2022-09-05T19:19:24.294Z,101313.23
2022-09-05T19:22:54.523Z,101311.89
2022-09-05T19:24:46.882Z,101307.77
2022-09-05T19:29:50.215Z,101308.99
2022-09-05T19:36:51.631Z,101305.42
2022-09-05T19:36:52.114Z,101307.70
2022-09-05T19:36:54.920Z,101306.66
2022-09-05T19:39:36.259Z,101304.77
2022-09-05T19:47:28.584Z,101307.84
2022-09-05T19:47:38.912Z,101304.73
2022-09-05T19:50:29.268Z,101300.64
2022-09-05T19:53:07.471Z,101296.80
2022-09-05T19:55:39.273Z,101296.34
2022-09-05T19:58:20.815Z,101295.92
2022-09-05T20:01:06.095Z,101290.02
2022-09-05T20:03:41.623Z,101288.02
2022-09-05T20:06:29.256Z,101289.69
2022-09-05T20:09:16.356Z,101290.73
2022-09-05T20:11:59.942Z,101289.23
2022-09-05T20:14:32.143Z,101283.59
2022-09-05T20:17:43.348Z,101284.11
2022-09-05T20:20:22.508Z,101282.96
2022-09-05T20:22:57.370Z,101281.13
2022-09-05T20:25:40.781Z,101280.52
2022-09-05T20:28:19.902Z,101278.77
2022-09-05T20:30:54.420Z,101279.98
2022-09-05T20:33:58.012Z,101275.86
2022-09-05T20:43:11.731Z,101274.38
2022-09-05T20:43:16.800Z,101270.17
2022-09-05T20:43:29.086Z,101269.20
2022-09-05T20:46:20.091Z,101269.97
2022-09-05T20:54:05.271Z,101264.39
2022-09-05T20:54:19.678Z,101265.05
2022-09-05T20:54:42.604Z,101266.84
2022-09-05T20:57:23.007Z,101269.55
2022-09-05T20:59:51.501Z,101263.09
2022-09-05T21:02:28.961Z,101264.73
2022-09-05T21:05:21.266Z,101266.52
2022-09-05T21:08:02.488Z,101266.73
2022-09-05T21:10:58.066Z,101267.08
2022-09-05T21:13:37.433Z,101267.91
2022-09-05T21:16:29.068Z,101264.94
2022-09-05T21:18:57.512Z,101266.52
2022-09-05T21:21:31.991Z,101269.47
2022-09-05T21:24:16.644Z,101265.61
2022-09-05T21:26:48.732Z,101269.52
2022-09-05T21:29:33.133Z,101274.08
2022-09-05T21:32:05.591Z,101273.54
2022-09-05T21:34:55.043Z,101276.66
2022-09-05T21:37:24.548Z,101271.06
2022-09-05T21:39:59.613Z,101277.96
2022-09-05T21:44:46.764Z,101276.31
2022-09-05T21:47:49.928Z,101272.53
2022-09-05T21:48:15.170Z,101277.63
2022-09-05T21:50:54.194Z,101274.64
2022-09-05T21:58:48.552Z,101279.01
2022-09-05T21:59:29.830Z,101275.23
2022-09-05T21:59:46.056Z,101275.31
2022-09-05T22:02:17.074Z,101275.66
2022-09-05T22:04:47.377Z,101277.42
2022-09-05T22:07:31.799Z,101280.70
2022-09-05T22:10:04.623Z,101279.03
2022-09-05T22:12:38.820Z,101281.66
2022-09-05T22:15:28.173Z,101286.36
2022-09-05T22:18:16.602Z,101286.16
2022-09-05T22:21:33.504Z,101281.05
2022-09-05T22:23:44.543Z,101279.05
2022-09-05T22:26:15.518Z,101281.59
2022-09-05T22:28:49.633Z,101280.17
2022-09-05T22:31:20.159Z,101277.58
2022-09-05T22:33:51.226Z,101275.99
2022-09-05T22:36:19.920Z,101277.12
2022-09-05T22:38:48.209Z,101277.88
2022-09-05T22:41:17.139Z,101273.64
2022-09-05T22:43:46.605Z,101278.86
2022-09-05T22:46:15.080Z,101277.69
2022-09-05T22:48:43.452Z,101277.46
2022-09-05T22:51:12.179Z,101283.30
2022-09-05T22:53:40.461Z,101282.73
2022-09-05T22:56:10.101Z,101281.80
2022-09-05T22:58:40.013Z,101280.42
2022-09-05T23:01:08.498Z,101279.17
2022-09-05T23:04:00.335Z,101279.37
2022-09-05T23:06:29.710Z,101275.84
2022-09-05T23:08:58.298Z,101274.02
2022-09-05T23:11:27.267Z,101272.79
2022-09-05T23:13:55.783Z,101271.67
2022-09-05T23:16:24.390Z,101268.92
2022-09-05T23:18:52.784Z,101266.53
2022-09-05T23:21:21.482Z,101266.06
2022-09-05T23:23:50.007Z,101265.93
2022-09-05T23:26:18.510Z,101266.47
2022-09-05T23:28:47.031Z,101264.11
2022-09-05T23:31:15.600Z,101260.64
2022-09-05T23:33:44.146Z,101266.52
2022-09-05T23:36:14.025Z,101261.92
2022-09-05T23:38:43.767Z,101261.05
2022-09-05T23:41:15.218Z,101260.31
2022-09-05T23:43:43.790Z,101260.42
2022-09-05T23:46:12.384Z,101257.79
2022-09-05T23:48:41.073Z,101261.65
2022-09-05T23:51:12.533Z,101260.98
2022-09-05T23:53:41.584Z,101263.39
2022-09-05T23:56:11.635Z,101265.36
2022-09-05T23:58:40.299Z,101264.41
